Time;durP1;ratioP1;P1;durP2;ratioP2;P2;SDS_P1;SDS_P2;PMS_P1;PMS_P2;Temp;Humidity;BMP_temperature;BMP_pressure;BME280_temperature;BME280_humidity;BME280_pressure;Samples;Min_cycle;Max_cycle;Signal;HPM_P1;HPM_P2
2021/12/18 00:03:24;;;;;;;6.65;2.65;;;;;;;18.72;42.97;102588.75;10131983;28;66577;-70
2021/12/18 00:08:18;;;;;;;4.05;2.30;;;;;;;18.65;42.97;102582.59;10118148;28;65762;-73
2021/12/18 00:13:10;;;;;;;2.83;2.58;;;;;;;18.70;42.79;102578.00;10110508;28;65654;-70
2021/12/18 00:18:02;;;;;;;2.70;2.10;;;;;;;18.73;42.67;102577.53;10108334;28;65692;-73
2021/12/18 00:22:55;;;;;;;3.47;2.10;;;;;;;18.71;42.77;102581.59;10117104;28;66001;-71
2021/12/18 00:27:49;;;;;;;2.65;2.08;;;;;;;18.71;42.70;102587.09;10116719;28;65930;-75
2021/12/18 00:32:41;;;;;;;4.72;2.50;;;;;;;18.69;42.40;102592.00;10132120;28;65558;-74
2021/12/18 00:37:33;;;;;;;6.40;2.22;;;;;;;18.67;42.71;102592.25;10124697;28;65865;-76
2021/12/18 00:42:38;;;;;;;7.40;2.25;;;;;;;18.66;42.60;102590.59;10112788;28;65808;-76
2021/12/18 00:47:31;;;;;;;6.28;2.03;;;;;;;18.65;42.48;102585.34;10109935;28;66355;-74
2021/12/18 00:52:24;;;;;;;4.30;2.05;;;;;;;18.63;42.76;102582.84;10106713;28;64581;-72
2021/12/18 00:57:16;;;;;;;3.25;1.95;;;;;;;18.66;42.53;102576.03;10108710;28;66728;-73
2021/12/18 01:02:08;;;;;;;3.90;1.80;;;;;;;18.65;42.66;102586.19;10111523;28;65481;-72
2021/12/18 01:07:02;;;;;;;2.55;1.92;;;;;;;18.64;42.35;102587.25;10117904;28;66147;-73
2021/12/18 01:11:54;;;;;;;3.25;1.88;;;;;;;18.61;42.37;102594.06;10107843;28;66400;-72
2021/12/18 01:16:55;;;;;;;2.35;1.70;;;;;;;18.65;42.20;102599.91;10110891;28;66696;-77
2021/12/18 01:27:09;;;;;;;2.17;1.60;;;;;;;18.64;42.23;102603.75;10126019;28;66928;-74
2021/12/18 01:32:01;;;;;;;2.10;1.80;;;;;;;18.61;42.30;102593.22;10116319;28;65573;-74
2021/12/18 01:36:54;;;;;;;2.35;1.73;;;;;;;18.63;41.96;102604.81;10106003;28;66403;-73
2021/12/18 01:42:01;;;;;;;2.08;1.88;;;;;;;18.63;41.84;102607.56;10130669;28;66433;-72
2021/12/18 01:51:10;;;;;;;3.40;1.83;;;;;;;18.63;41.99;102607.56;10101172;28;66155;-72
2021/12/18 01:52:19;;;;;;;2.05;1.60;;;;;;;18.70;41.66;102616.47;10089101;28;67039;-73
2021/12/18 06:53:47;;;;;;;1.70;1.60;;;;;;;17.75;42.65;102625.28;11268260;23;43868;-66
2021/12/18 06:58:39;;;;;;;2.00;1.42;;;;;;;17.71;42.66;102623.25;9840992;28;66337;-68
2021/12/18 07:03:32;;;;;;;3.00;1.50;;;;;;;17.70;42.63;102629.81;9850206;28;65583;-67
2021/12/18 07:08:56;;;;;;;1.75;1.42;;;;;;;17.69;42.77;102639.13;9834854;28;66256;-67
2021/12/18 07:13:48;;;;;;;1.60;1.23;;;;;;;17.72;42.69;102633.97;9824520;28;66405;-69
2021/12/18 07:18:41;;;;;;;1.20;1.10;;;;;;;17.68;42.86;102638.28;9841640;28;66291;-66
2021/12/18 07:23:33;;;;;;;1.58;1.48;;;;;;;17.66;42.86;102637.69;9852267;28;66398;-69
2021/12/18 07:28:26;;;;;;;1.30;1.20;;;;;;;17.69;42.83;102636.38;9854823;28;65664;-69
2021/12/18 07:33:18;;;;;;;1.65;1.40;;;;;;;17.68;42.76;102634.69;9854886;28;65499;-68
2021/12/18 07:38:11;;;;;;;1.92;1.30;;;;;;;17.63;42.96;102634.59;9854447;28;66876;-67
2021/12/18 07:43:03;;;;;;;1.63;1.38;;;;;;;17.66;43.02;102639.59;9850712;28;66492;-68
2021/12/18 07:47:57;;;;;;;1.70;1.40;;;;;;;17.67;42.91;102642.09;9852757;28;65500;-68
2021/12/18 07:52:49;;;;;;;1.50;1.20;;;;;;;17.68;43.01;102640.19;9854210;28;66244;-68
2021/12/18 07:57:41;;;;;;;1.40;1.30;;;;;;;17.64;42.90;102639.81;9855563;28;66011;-68
2021/12/18 08:02:33;;;;;;;1.63;1.40;;;;;;;17.63;43.04;102648.31;9851811;28;66277;-68
2021/12/18 08:07:27;;;;;;;2.08;1.27;;;;;;;17.62;43.03;102644.72;9852843;28;67036;-70
2021/12/18 08:12:19;;;;;;;1.73;1.52;;;;;;;17.64;43.05;102647.22;9853496;28;65338;-70
2021/12/18 08:17:11;;;;;;;3.15;1.80;;;;;;;17.63;43.03;102653.81;9857462;28;66416;-69
2021/12/18 08:22:03;;;;;;;1.83;1.35;;;;;;;17.61;43.21;102639.44;9853791;28;66436;-68
2021/12/18 08:26:57;;;;;;;2.35;1.48;;;;;;;17.59;43.21;102644.34;9847876;28;66344;-70
2021/12/18 08:31:51;;;;;;;1.70;1.40;;;;;;;17.60;43.19;102640.53;9844070;28;66388;-69
2021/12/18 08:36:43;;;;;;;1.60;1.40;;;;;;;17.58;43.36;102642.66;9836854;28;65690;-69
2021/12/18 08:41:38;;;;;;;1.65;1.40;;;;;;;17.60;43.27;102644.09;9852868;28;65535;-69
2021/12/18 08:46:31;;;;;;;2.13;1.60;;;;;;;17.56;43.29;102645.63;9852105;28;66297;-67
2021/12/18 08:51:23;;;;;;;1.67;1.38;;;;;;;17.59;43.56;102638.84;9852507;28;65731;-68
2021/12/18 08:56:15;;;;;;;2.17;1.50;;;;;;;17.58;43.28;102640.75;9852224;28;66337;-69
2021/12/18 09:01:07;;;;;;;1.85;1.45;;;;;;;17.60;43.26;102635.03;9853581;28;66867;-68
2021/12/18 09:06:01;;;;;;;1.70;1.40;;;;;;;17.56;43.33;102644.81;9852124;28;65524;-69
2021/12/18 09:10:53;;;;;;;1.60;1.50;;;;;;;17.59;43.35;102644.34;9852826;28;66499;-69
2021/12/18 09:15:45;;;;;;;2.03;1.20;;;;;;;17.56;43.39;102650.31;9851586;28;65563;-69
2021/12/18 09:20:37;;;;;;;1.33;1.23;;;;;;;17.55;43.36;102648.63;9853457;28;66416;-70
2021/12/18 09:25:31;;;;;;;1.30;1.20;;;;;;;17.65;43.11;102651.63;9839365;28;66041;-68
2021/12/18 09:30:23;;;;;;;1.88;1.20;;;;;;;17.56;43.47;102647.56;9850234;28;66300;-68
2021/12/18 09:35:15;;;;;;;1.55;1.40;;;;;;;17.55;43.35;102652.22;9832184;28;61902;-68
2021/12/18 09:40:08;;;;;;;2.85;1.42;;;;;;;17.54;43.39;102636.00;9852406;28;66337;-68
2021/12/18 09:45:02;;;;;;;1.20;1.10;;;;;;;17.56;43.54;102631.91;9849799;28;66428;-68
2021/12/18 09:49:54;;;;;;;1.35;1.25;;;;;;;17.55;43.45;102632.19;9850068;28;66373;-69
2021/12/18 09:54:46;;;;;;;2.50;1.65;;;;;;;17.55;43.49;102626.69;9852925;28;66329;-69
2021/12/18 09:59:39;;;;;;;2.95;2.20;;;;;;;17.57;43.18;102630.00;9850891;28;65558;-68
2021/12/18 10:04:33;;;;;;;2.20;1.70;;;;;;;17.54;43.27;102623.13;9849640;28;65523;-68
2021/12/18 10:09:31;;;;;;;2.47;1.60;;;;;;;17.55;43.34;102619.31;9849932;28;66494;-69
2021/12/18 10:14:33;;;;;;;2.75;1.70;;;;;;;17.55;43.49;102616.56;9850666;28;66420;-69
2021/12/18 10:19:27;;;;;;;2.22;1.52;;;;;;;17.57;43.53;102616.28;9849072;28;66457;-69
2021/12/18 10:24:20;;;;;;;1.48;1.38;;;;;;;17.55;43.55;102607.50;9849887;28;66315;-68
2021/12/18 10:29:35;;;;;;;1.70;1.60;;;;;;;17.57;43.42;102599.84;9850114;28;65563;-68
2021/12/18 10:34:27;;;;;;;1.73;1.20;;;;;;;17.57;43.89;102592.44;9837330;28;66447;-68
2021/12/18 10:39:21;;;;;;;1.40;1.30;;;;;;;17.60;43.73;102585.66;9850027;28;65349;-68
2021/12/18 10:44:14;;;;;;;2.00;1.30;;;;;;;17.57;43.72;102581.47;9812297;29;65982;-68
2021/12/18 10:49:07;;;;;;;1.60;1.50;;;;;;;17.58;43.74;102577.66;9848241;28;65734;-68
2021/12/18 10:54:01;;;;;;;1.83;1.35;;;;;;;17.58;43.85;102574.09;9849048;28;65901;-68
2021/12/18 10:58:55;;;;;;;1.58;1.30;;;;;;;17.58;43.85;102576.81;9854157;28;66366;-68
2021/12/18 11:03:48;;;;;;;1.40;1.17;;;;;;;17.56;43.86;102568.84;9857483;28;66920;-68
2021/12/18 11:08:58;;;;;;;1.40;1.10;;;;;;;17.57;43.87;102555.94;9855052;28;65517;-68
2021/12/18 11:13:51;;;;;;;1.80;1.17;;;;;;;17.57;43.97;102562.28;9854657;28;65587;-68
2021/12/18 11:18:44;;;;;;;1.75;1.35;;;;;;;17.56;44.00;102548.84;9856618;28;66306;-68
2021/12/18 11:23:39;;;;;;;1.23;1.13;;;;;;;17.58;44.11;102533.78;9854752;28;66383;-68
2021/12/18 11:28:31;;;;;;;1.60;1.40;;;;;;;17.59;44.14;102531.88;9854166;28;65725;-69
2021/12/18 11:33:23;;;;;;;2.25;1.15;;;;;;;17.58;44.19;102524.72;9854544;28;66532;-69
2021/12/18 11:38:16;;;;;;;2.03;1.02;;;;;;;17.56;44.31;102521.41;9854700;28;66445;-68
2021/12/18 11:43:09;;;;;;;2.65;1.30;;;;;;;17.58;44.21;102517.31;9855870;28;65529;-69
2021/12/18 11:48:01;;;;;;;2.63;1.38;;;;;;;17.58;44.19;102516.47;9853699;28;66461;-67
2021/12/18 11:52:58;;;;;;;3.03;1.02;;;;;;;17.57;44.13;102510.16;9854351;28;66901;-68
2021/12/18 11:57:52;;;;;;;2.22;1.40;;;;;;;17.66;44.35;102507.91;9827596;28;66192;-70
2021/12/18 12:02:45;;;;;;;1.98;1.25;;;;;;;17.58;44.32;102506.34;9854902;28;66370;-68
2021/12/18 12:07:38;;;;;;;1.42;1.10;;;;;;;17.56;44.43;102494.78;9855355;28;65613;-69
2021/12/18 12:12:47;;;;;;;3.15;1.38;;;;;;;17.60;44.60;102493.22;9853455;28;66369;-70
2021/12/18 12:17:46;;;;;;;1.88;1.30;;;;;;;17.70;44.86;102478.94;9846553;28;66631;-68
2021/12/18 12:22:52;;;;;;;5.85;1.40;;;;;;;17.69;44.83;102480.84;9855494;28;65651;-68
2021/12/18 12:27:46;;;;;;;3.40;1.30;;;;;;;17.78;44.77;102473.06;9853476;28;66266;-68
2021/12/18 12:32:38;;;;;;;2.22;1.20;;;;;;;17.79;44.71;102470.03;9854977;28;66309;-68
2021/12/18 12:37:43;;;;;;;1.63;1.40;;;;;;;17.81;44.76;102467.91;9853253;28;65695;-69
2021/12/18 12:42:35;;;;;;;2.05;1.10;;;;;;;17.80;44.80;102465.38;9853554;28;66462;-68
2021/12/18 12:47:28;;;;;;;1.40;1.30;;;;;;;17.75;45.06;102463.38;9853815;28;66428;-68
2021/12/18 12:52:21;;;;;;;3.55;1.35;;;;;;;17.73;44.94;102451.81;9852324;28;66387;-69
2021/12/18 12:57:33;;;;;;;3.63;1.38;;;;;;;17.82;44.81;102452.25;9845826;28;66833;-70
2021/12/18 13:02:25;;;;;;;8.15;1.30;;;;;;;17.86;45.09;102436.16;9814210;29;66167;-70
2021/12/18 13:07:18;;;;;;;3.38;1.40;;;;;;;17.93;44.92;102434.94;9852303;28;65576;-71
2021/12/18 13:12:10;;;;;;;4.28;1.35;;;;;;;17.97;45.01;102425.09;9852894;28;66294;-71
2021/12/18 13:17:16;;;;;;;5.13;1.38;;;;;;;17.86;45.00;102430.66;9853953;28;66388;-69
2021/12/18 13:22:11;;;;;;;3.25;1.50;;;;;;;17.77;44.99;102422.84;9852207;28;66322;-69
2021/12/18 13:27:06;;;;;;;1.35;1.25;;;;;;;17.73;45.08;102426.28;9852530;28;66240;-70
2021/12/18 13:31:58;;;;;;;2.38;1.40;;;;;;;17.95;44.75;102424.50;9851246;28;66618;-72
2021/12/18 13:36:53;;;;;;;1.98;1.20;;;;;;;17.92;45.05;102422.28;9851447;28;66122;-71
2021/12/18 13:42:10;;;;;;;3.20;1.23;;;;;;;18.00;44.93;102415.56;9851666;28;66654;-70
2021/12/18 13:47:12;;;;;;;4.05;1.52;;;;;;;17.88;44.88;102423.84;9849710;28;66152;-69
2021/12/18 13:52:06;;;;;;;2.83;1.10;;;;;;;17.85;44.86;102418.84;9850819;28;65609;-69
2021/12/18 13:56:58;;;;;;;2.63;1.20;;;;;;;17.86;44.70;102416.94;9849487;28;66464;-69
2021/12/18 14:01:51;;;;;;;3.83;1.40;;;;;;;17.81;44.84;102413.03;9848845;28;66118;-69
2021/12/18 14:06:43;;;;;;;1.60;1.38;;;;;;;17.82;44.84;102419.34;9850152;28;66485;-70
2021/12/18 14:11:38;;;;;;;2.38;1.45;;;;;;;17.84;44.60;102422.69;9849736;28;66623;-70
2021/12/18 14:16:30;;;;;;;3.00;1.38;;;;;;;17.86;44.71;102419.69;9848967;28;66191;-69
2021/12/18 14:21:34;;;;;;;3.67;1.60;;;;;;;17.86;44.67;102419.69;9848168;28;65592;-71
2021/12/18 14:26:27;;;;;;;2.33;1.42;;;;;;;17.84;44.63;102420.78;9847471;28;66836;-71
2021/12/18 14:31:28;;;;;;;1.35;1.17;;;;;;;17.84;44.61;102420.78;9848880;28;66527;-71
2021/12/18 14:36:56;;;;;;;4.60;1.45;;;;;;;17.99;44.66;102422.13;9845684;28;65608;-71
2021/12/18 14:41:53;;;;;;;3.47;1.50;;;;;;;18.08;44.63;102413.22;9848666;28;65512;-71
2021/12/18 14:46:47;;;;;;;3.00;1.30;;;;;;;18.16;44.78;102410.06;9848871;28;43297;-72
2021/12/18 14:51:42;;;;;;;4.82;1.60;;;;;;;18.24;44.72;102412.41;9834443;28;65756;-72
2021/12/18 14:56:35;;;;;;;2.55;1.65;;;;;;;18.15;44.62;102410.34;9842792;28;65486;-73
2021/12/18 15:01:27;;;;;;;4.15;1.50;;;;;;;18.24;44.27;102408.81;9817362;28;66485;-69
2021/12/18 15:06:22;;;;;;;2.75;1.40;;;;;;;18.23;44.41;102409.88;9809599;29;65510;-70
2021/12/18 15:11:16;;;;;;;4.80;1.38;;;;;;;18.26;44.49;102401.16;9810848;29;66536;-70
2021/12/18 15:16:17;;;;;;;1.58;1.20;;;;;;;18.20;44.45;102396.69;9810980;29;66266;-70
2021/12/18 15:21:09;;;;;;;3.47;1.85;;;;;;;18.14;44.56;102397.69;9810759;29;66341;-72
2021/12/18 15:26:03;;;;;;;4.88;1.13;;;;;;;18.10;44.44;102396.50;9808547;29;66408;-71
2021/12/18 15:30:55;;;;;;;3.45;1.40;;;;;;;18.17;44.25;102394.41;9809603;29;65978;-71
2021/12/18 15:35:47;;;;;;;6.03;1.20;;;;;;;18.10;44.34;102397.34;9807657;29;65537;-71
2021/12/18 15:40:40;;;;;;;2.95;1.10;;;;;;;18.13;44.29;102387.78;9810180;29;65979;-71
2021/12/18 15:45:33;;;;;;;5.35;1.40;;;;;;;18.15;44.17;102393.84;9812317;29;66490;-71
2021/12/18 15:50:25;;;;;;;6.03;1.17;;;;;;;18.13;44.16;102391.34;9797475;29;65646;-70
2021/12/18 15:55:18;;;;;;;5.82;1.13;;;;;;;18.09;44.29;102392.09;9814102;29;65881;-70
2021/12/18 16:00:11;;;;;;;2.33;1.13;;;;;;;18.13;44.16;102393.28;9816140;29;66379;-70
2021/12/18 16:05:06;;;;;;;2.38;1.00;;;;;;;18.13;44.13;102396.84;9816030;29;66410;-70
2021/12/18 16:09:59;;;;;;;3.45;1.33;;;;;;;18.09;44.23;102392.09;9815389;29;65618;-71
2021/12/18 16:14:51;;;;;;;2.22;1.23;;;;;;;18.09;44.27;102384.69;9814291;29;66072;-70
2021/12/18 16:19:43;;;;;;;2.08;1.20;;;;;;;18.08;44.24;102374.78;9816479;29;66306;-70
2021/12/18 16:24:36;;;;;;;1.48;0.95;;;;;;;18.02;44.29;102373.03;9815878;29;66404;-71
2021/12/18 16:29:29;;;;;;;3.67;1.23;;;;;;;17.99;44.44;102372.72;9815362;29;66573;-71
2021/12/18 16:34:21;;;;;;;2.38;1.27;;;;;;;17.98;44.26;102385.59;9814261;29;66749;-71
2021/12/18 16:39:13;;;;;;;3.30;1.02;;;;;;;17.95;44.47;102382.50;9816079;29;66408;-71
2021/12/18 16:44:06;;;;;;;2.60;1.20;;;;;;;17.91;44.49;102379.44;9814118;29;66476;-71
2021/12/18 16:48:58;;;;;;;3.67;1.20;;;;;;;18.03;44.79;102374.69;9814577;29;66114;-71
2021/12/18 16:53:51;;;;;;;4.75;1.30;;;;;;;18.04;44.74;102370.06;9811931;29;65682;-71
2021/12/18 16:58:43;;;;;;;1.95;1.10;;;;;;;18.04;44.58;102373.63;9814173;29;66405;-71
2021/12/18 17:03:37;;;;;;;1.58;1.10;;;;;;;18.05;44.55;102375.28;9813329;29;65227;-71
2021/12/18 17:08:29;;;;;;;1.85;1.15;;;;;;;18.06;44.54;102374.22;9793081;29;66214;-71
2021/12/18 17:13:21;;;;;;;4.15;1.10;;;;;;;18.14;44.64;102367.47;9812762;29;66579;-73
2021/12/18 17:18:13;;;;;;;2.35;1.05;;;;;;;18.24;44.89;102370.38;9806622;28;66417;-72
2021/12/18 17:23:07;;;;;;;4.30;1.30;;;;;;;18.26;45.05;102361.88;9813363;29;66215;-72
2021/12/18 17:27:59;;;;;;;1.55;1.02;;;;;;;18.41;44.79;102365.72;9813173;29;68551;-71
2021/12/18 17:32:51;;;;;;;1.60;1.10;;;;;;;18.40;44.85;102360.47;9811525;29;65119;-71
2021/12/18 17:37:43;;;;;;;2.10;1.25;;;;;;;18.42;44.94;102344.56;9812525;29;66251;-71
2021/12/18 17:42:37;;;;;;;2.53;1.05;;;;;;;18.31;44.93;102342.75;9812528;29;66491;-72
2021/12/18 17:47:29;;;;;;;2.17;1.13;;;;;;;18.38;45.38;102344.22;9812535;29;65758;-76
2021/12/18 17:52:21;;;;;;;3.67;1.10;;;;;;;18.50;45.31;102342.22;9810876;29;66386;-73
2021/12/18 17:57:14;;;;;;;3.70;1.17;;;;;;;18.53;45.51;102340.88;9781208;29;66549;-71
2021/12/18 18:02:07;;;;;;;2.78;1.15;;;;;;;18.60;45.27;102342.38;9808286;28;65587;-70
2021/12/18 18:06:59;;;;;;;1.27;0.90;;;;;;;18.53;45.21;102341.72;9802515;29;66780;-70
2021/12/18 18:11:52;;;;;;;1.42;1.00;;;;;;;18.53;45.04;102338.97;9810366;29;66586;-71
2021/12/18 18:16:44;;;;;;;3.20;1.60;;;;;;;18.49;45.06;102334.22;9811093;29;65459;-71
2021/12/18 18:21:37;;;;;;;2.67;1.48;;;;;;;18.44;44.96;102329.50;9811278;29;65885;-71
2021/12/18 18:26:29;;;;;;;1.73;1.30;;;;;;;18.51;44.92;102321.91;9809114;29;66993;-71
2021/12/18 18:31:21;;;;;;;5.43;1.83;;;;;;;18.52;44.86;102318.09;9807818;29;66408;-71
2021/12/18 18:36:14;;;;;;;3.58;1.77;;;;;;;18.52;44.88;102329.09;9810152;29;66367;-71
2021/12/18 18:41:08;;;;;;;4.95;1.88;;;;;;;18.46;44.88;102321.81;9808037;29;64694;-70
2021/12/18 18:46:09;;;;;;;4.32;2.10;;;;;;;18.50;44.85;102323.00;9810252;29;66775;-71
2021/12/18 18:51:02;;;;;;;4.55;2.10;;;;;;;18.60;45.08;102319.56;9807036;29;66743;-74
2021/12/18 18:55:54;;;;;;;3.63;1.80;;;;;;;18.64;45.21;102323.50;9810923;29;64432;-72
2021/12/18 19:00:48;;;;;;;5.38;2.28;;;;;;;18.50;44.88;102324.91;9807945;29;66363;-69
2021/12/18 19:05:40;;;;;;;8.98;3.97;;;;;;;18.46;44.75;102321.00;9806563;29;66358;-69
2021/12/18 19:10:32;;;;;;;10.65;4.72;;;;;;;18.50;44.64;102306.53;9809325;29;66803;-69
2021/12/18 19:15:24;;;;;;;13.70;5.47;;;;;;;18.53;44.54;102316.97;9809721;29;66536;-69
2021/12/18 19:20:26;;;;;;;13.05;4.93;;;;;;;18.52;44.58;102309.84;9814411;29;66417;-69
2021/12/18 19:25:19;;;;;;;13.15;5.13;;;;;;;18.55;44.52;102314.00;9814246;29;66409;-70
2021/12/18 19:30:13;;;;;;;8.35;4.35;;;;;;;18.48;44.71;102311.44;9816329;29;66581;-70
2021/12/18 19:35:08;;;;;;;10.82;4.68;;;;;;;18.50;44.57;102316.69;9816417;29;65671;-70
2021/12/18 19:40:03;;;;;;;12.00;4.78;;;;;;;18.53;44.51;102306.00;9816394;29;66061;-70
2021/12/18 19:44:56;;;;;;;9.95;4.35;;;;;;;18.44;44.71;102301.22;9816006;29;65927;-70
2021/12/18 19:49:50;;;;;;;11.65;4.63;;;;;;;18.47;44.59;102300.69;9816856;29;67001;-70
2021/12/18 19:54:43;;;;;;;9.48;4.35;;;;;;;18.51;44.49;102293.63;9815455;29;66064;-70
2021/12/18 19:59:38;;;;;;;10.00;4.75;;;;;;;18.49;44.59;102295.78;9816725;29;66807;-71
2021/12/18 20:04:35;;;;;;;7.55;4.10;;;;;;;18.49;44.53;102293.03;9815813;29;67091;-71
2021/12/18 20:09:28;;;;;;;11.48;4.47;;;;;;;18.48;44.74;102291.38;9814258;29;65337;-71
2021/12/18 20:14:22;;;;;;;10.55;4.40;;;;;;;18.55;44.65;102289.25;9799375;29;66717;-72
2021/12/18 20:19:17;;;;;;;9.40;4.28;;;;;;;18.56;44.61;102280.81;9815305;29;66390;-72
2021/12/18 20:24:11;;;;;;;12.93;5.00;;;;;;;18.56;44.43;102278.06;9816310;29;66121;-71
2021/12/18 20:29:04;;;;;;;12.73;4.30;;;;;;;18.57;44.41;102279.72;9812919;29;65378;-71
2021/12/18 20:33:58;;;;;;;12.02;4.68;;;;;;;18.44;44.70;102282.81;9814121;29;66736;-71
2021/12/18 20:38:52;;;;;;;10.52;5.45;;;;;;;18.28;44.40;102275.44;9797483;29;66527;-70
2021/12/18 20:43:47;;;;;;;9.57;6.13;;;;;;;18.27;43.70;102272.94;9813044;29;65765;-70
2021/12/18 20:48:41;;;;;;;8.85;6.45;;;;;;;18.21;43.28;102272.88;9814105;29;65498;-70
2021/12/18 20:53:36;;;;;;;8.73;6.50;;;;;;;18.21;42.85;102275.63;9816833;29;67030;-70
2021/12/18 20:58:31;;;;;;;8.85;7.38;;;;;;;18.14;43.06;102274.16;9812721;29;66256;-70
2021/12/18 21:03:24;;;;;;;9.15;6.22;;;;;;;18.06;42.94;102263.59;9812501;29;66499;-71
2021/12/18 21:08:19;;;;;;;6.65;5.43;;;;;;;18.20;42.80;102259.41;9812346;29;66405;-71
2021/12/18 21:13:13;;;;;;;6.45;4.30;;;;;;;18.29;42.76;102257.91;9812033;29;66449;-71
2021/12/18 21:18:09;;;;;;;7.32;4.45;;;;;;;18.39;42.84;102240.69;9812498;29;65437;-70
2021/12/18 21:23:03;;;;;;;5.00;3.85;;;;;;;18.41;42.94;102241.28;9811681;29;66518;-71
2021/12/18 21:27:56;;;;;;;8.00;4.22;;;;;;;18.43;43.02;102245.44;9812182;29;65514;-71
2021/12/18 21:32:51;;;;;;;7.70;3.60;;;;;;;18.50;43.14;102250.75;9810291;29;66624;-71
2021/12/18 21:37:46;;;;;;;5.10;3.78;;;;;;;18.49;43.17;102247.16;9811192;29;66855;-71
2021/12/18 21:42:39;;;;;;;5.28;3.50;;;;;;;18.55;43.17;102250.81;9809605;29;66338;-71
2021/12/18 21:47:34;;;;;;;5.70;3.70;;;;;;;18.61;43.30;102253.38;9810831;29;65643;-71
2021/12/18 21:52:28;;;;;;;7.88;3.60;;;;;;;18.59;43.13;102249.25;9811505;29;65513;-71
2021/12/18 21:57:22;;;;;;;6.07;3.80;;;;;;;18.59;43.35;102238.28;9811967;29;66294;-69
2021/12/18 22:02:15;;;;;;;14.98;4.28;;;;;;;18.81;43.86;102241.00;9811257;29;65779;-73
2021/12/18 22:07:09;;;;;;;10.27;3.97;;;;;;;18.84;43.77;102234.97;9811384;29;66108;-72
2021/12/18 22:12:01;;;;;;;11.23;3.47;;;;;;;18.87;44.44;102238.06;9811817;29;66656;-72
2021/12/18 22:16:55;;;;;;;14.68;3.50;;;;;;;18.87;44.32;102239.97;9810360;29;65994;-71
2021/12/18 22:21:48;;;;;;;9.88;3.42;;;;;;;18.82;44.52;102250.91;9810744;29;65648;-78
2021/12/18 22:26:40;;;;;;;10.23;3.22;;;;;;;18.92;44.17;102251.84;9813576;29;66854;-75
2021/12/18 22:31:33;;;;;;;7.78;3.45;;;;;;;18.87;44.54;102248.22;9809704;29;65621;-74
2021/12/18 22:36:27;;;;;;;11.68;3.50;;;;;;;18.95;44.33;102245.00;9815640;29;65493;-73
2021/12/18 22:41:19;;;;;;;17.65;3.42;;;;;;;18.91;44.41;102239.19;9812172;29;66963;-72
2021/12/18 22:46:11;;;;;;;11.52;3.38;;;;;;;18.92;44.25;102229.84;9812734;29;66998;-74
2021/12/18 22:51:03;;;;;;;14.88;3.40;;;;;;;18.93;44.25;102234.25;9810281;29;66163;-72
2021/12/18 22:55:57;;;;;;;10.10;3.50;;;;;;;18.97;44.52;102220.81;9816140;29;65516;-76
2021/12/18 23:01:07;;;;;;;9.98;3.33;;;;;;;18.99;44.26;102215.91;9817473;29;65586;-79
2021/12/18 23:05:59;;;;;;;21.73;4.15;;;;;;;18.91;44.58;102219.09;9809680;29;66452;-76
